Terminal Aerodrome Forecast
Issued by NWS

Home | Current Version | Previous Version | Text Only | Print | Product List | Glossary On
Versions: 1 2 3 4 5 6 7 8 9 10 11 12 13 14 15 16 17 18 19 20 21 22 23 24 25 26
000
FTUS42 TJSJ 131618 AAA
TAFJPS
TAF AMD
TJPS 131618Z 1316/1412 13015KT P6SM FEW035 SCT070
      TEMPO 1316/1317 09020G30KT 4SM SHRA BKN025
     FM132300 09006KT P6SM SCT030 SCT060=

USA.gov is the U.S. government's official web portal to all federal, state and local government web resources and services.